Time;durP1;ratioP1;P1;durP2;ratioP2;P2;SDS_P1;SDS_P2;PMS_P1;PMS_P2;Temp;Humidity;BMP_temperature;BMP_pressure;BME280_temperature;BME280_humidity;BME280_pressure;Samples;Min_cycle;Max_cycle;Signal;HPM_P1;HPM_P2
2023/02/18 00:01:29;;;;;;;;;;;;;;;19.41;34.11;101234.64;106184;1283;61090;-82
2023/02/18 00:03:56;;;;;;;;;;;;;;;19.41;34.13;101229.98;106155;1283;61352;-82
2023/02/18 00:06:22;;;;;;;;;;;;;;;19.41;34.24;101238.36;106284;1285;61237;-82
2023/02/18 00:08:48;;;;;;;;;;;;;;;19.40;34.23;101232.89;106179;1282;61061;-82
2023/02/18 00:11:14;;;;;;;;;;;;;;;19.41;34.11;101233.04;106013;1283;61700;-82
2023/02/18 00:13:39;;;;;;;;;;;;;;;19.40;34.38;101236.11;106323;1282;61265;-82
2023/02/18 00:16:06;;;;;;;;;;;;;;;19.40;34.15;101228.80;106253;1282;72402;-82
2023/02/18 00:18:31;;;;;;;;;;;;;;;19.40;34.08;101222.90;106199;1283;74551;-82
2023/02/18 00:20:57;;;;;;;;;;;;;;;19.40;34.20;101213.98;106173;1282;61297;-82
2023/02/18 00:23:22;;;;;;;;;;;;;;;19.40;34.25;101208.45;106256;1283;61248;-82
2023/02/18 00:25:48;;;;;;;;;;;;;;;19.40;34.28;101197.23;106152;1285;61239;-82
2023/02/18 00:28:13;;;;;;;;;;;;;;;19.39;34.09;101194.56;106236;1283;61358;-82
2023/02/18 00:30:42;;;;;;;;;;;;;;;19.39;34.18;101198.14;106123;1283;75504;-82
2023/02/18 00:33:07;;;;;;;;;;;;;;;19.39;34.21;101196.37;106179;1282;61080;-82
2023/02/18 00:35:33;;;;;;;;;;;;;;;19.39;34.28;101190.67;106429;1284;61323;-82
2023/02/18 00:37:58;;;;;;;;;;;;;;;19.39;34.14;101189.92;106144;1287;61300;-82
2023/02/18 00:40:24;;;;;;;;;;;;;;;19.39;34.30;101189.97;105971;1288;61433;-82
2023/02/18 00:42:52;;;;;;;;;;;;;;;19.39;34.19;101188.73;106205;1283;59933;-82
2023/02/18 00:45:18;;;;;;;;;;;;;;;19.39;34.09;101185.65;106263;1282;61273;-82
2023/02/18 00:47:43;;;;;;;;;;;;;;;19.38;34.18;101180.34;106260;1283;61355;-81
2023/02/18 00:50:09;;;;;;;;;;;;;;;19.38;34.28;101176.42;106219;1284;61300;-81
2023/02/18 00:52:35;;;;;;;;;;;;;;;19.38;34.28;101180.20;106163;1283;61768;-81
2023/02/18 00:55:00;;;;;;;;;;;;;;;19.38;34.25;101171.08;106318;1285;61275;-81
2023/02/18 00:57:26;;;;;;;;;;;;;;;19.38;34.17;101166.45;106267;1283;61247;-81
2023/02/18 00:59:52;;;;;;;;;;;;;;;19.38;34.27;101165.71;106181;1283;61394;-81
2023/02/18 01:02:17;;;;;;;;;;;;;;;19.37;34.21;101171.83;106260;1285;61269;-81
2023/02/18 01:04:43;;;;;;;;;;;;;;;19.38;34.27;101169.13;106148;1288;61307;-81
2023/02/18 01:07:09;;;;;;;;;;;;;;;19.37;34.42;101164.87;106276;1283;61263;-81
2023/02/18 01:09:35;;;;;;;;;;;;;;;19.37;34.26;101153.80;106192;1282;61361;-81
2023/02/18 01:12:01;;;;;;;;;;;;;;;19.37;34.33;101142.95;106162;1283;61348;-81
2023/02/18 01:14:26;;;;;;;;;;;;;;;19.37;34.27;101128.85;106152;1288;61268;-81
2023/02/18 01:16:52;;;;;;;;;;;;;;;19.37;34.39;101130.64;106164;1287;61341;-81
2023/02/18 01:19:17;;;;;;;;;;;;;;;19.37;34.20;101140.96;106254;1286;61233;-81
2023/02/18 01:21:43;;;;;;;;;;;;;;;19.36;34.29;101152.80;106166;1285;61242;-81
2023/02/18 01:24:08;;;;;;;;;;;;;;;19.36;34.23;101150.13;106186;1283;61307;-81
2023/02/18 01:26:34;;;;;;;;;;;;;;;19.36;34.19;101138.88;105987;1288;59260;-81
2023/02/18 01:29:00;;;;;;;;;;;;;;;19.36;34.19;101129.77;106030;1283;61714;-81
2023/02/18 01:31:25;;;;;;;;;;;;;;;19.36;34.21;101124.08;106230;1283;61375;-81
2023/02/18 01:33:50;;;;;;;;;;;;;;;19.36;34.31;101123.17;106184;1283;61585;-82
2023/02/18 01:36:16;;;;;;;;;;;;;;;19.36;34.26;101121.05;106145;1283;61294;-81
2023/02/18 01:38:42;;;;;;;;;;;;;;;19.36;34.40;101116.41;106178;1288;61422;-81
2023/02/18 01:41:07;;;;;;;;;;;;;;;19.36;34.25;101115.37;106172;1283;61343;-81
2023/02/18 01:43:33;;;;;;;;;;;;;;;19.36;34.34;101117.86;106228;1288;61293;-81
2023/02/18 01:46:03;;;;;;;;;;;;;;;19.35;34.20;101116.98;106191;1283;61220;-81
2023/02/18 01:48:32;;;;;;;;;;;;;;;19.35;34.25;101113.96;106259;1282;61701;-81
2023/02/18 01:51:18;;;;;;;;;;;;;;;19.35;34.33;101114.13;106134;1283;73267;-81
2023/02/18 01:54:10;;;;;;;;;;;;;;;19.35;34.42;101112.17;106188;1287;74505;-82
2023/02/18 01:57:02;;;;;;;;;;;;;;;19.35;34.42;101108.43;105603;1289;61186;-82
2023/02/18 01:59:32;;;;;;;;;;;;;;;19.35;34.08;101094.36;105001;1297;61266;-81
2023/02/18 02:01:57;;;;;;;;;;;;;;;19.35;34.29;101092.36;104891;1296;73421;-81
2023/02/18 02:04:23;;;;;;;;;;;;;;;19.35;34.29;101088.61;104889;1299;61257;-81
2023/02/18 02:06:49;;;;;;;;;;;;;;;19.35;34.31;101080.61;104877;1295;61278;-81
2023/02/18 02:09:15;;;;;;;;;;;;;;;19.36;34.26;101077.73;105032;1295;61338;-81
2023/02/18 02:11:47;;;;;;;;;;;;;;;19.35;34.22;101072.94;105010;1297;61301;-81
2023/02/18 02:14:18;;;;;;;;;;;;;;;19.34;34.33;101080.63;104977;1296;74507;-81
2023/02/18 02:16:48;;;;;;;;;;;;;;;19.35;34.30;101087.23;104991;1296;61337;-81
2023/02/18 02:19:27;;;;;;;;;;;;;;;19.35;34.34;101097.05;104986;1297;61377;-81
2023/02/18 02:22:21;;;;;;;;;;;;;;;19.35;34.31;101097.04;104973;1298;73464;-81
2023/02/18 02:24:53;;;;;;;;;;;;;;;19.35;34.39;101095.27;104428;1302;74655;-81
2023/02/18 02:27:19;;;;;;;;;;;;;;;19.35;34.46;101088.84;104431;1303;61371;-81
2023/02/18 02:30:03;;;;;;;;;;;;;;;19.35;34.42;101098.48;104447;1302;61462;-81
2023/02/18 02:32:46;;;;;;;;;;;;;;;19.34;34.35;101090.45;104437;1303;72369;-81
2023/02/18 02:35:12;;;;;;;;;;;;;;;19.34;34.34;101091.89;104777;1297;76158;-82
2023/02/18 02:37:41;;;;;;;;;;;;;;;19.34;34.20;101089.58;105278;1290;61288;-82
2023/02/18 02:40:25;;;;;;;;;;;;;;;19.34;34.38;101089.59;105343;1291;61216;-82
2023/02/18 02:43:05;;;;;;;;;;;;;;;19.34;34.39;101084.77;105345;1292;72602;-82
2023/02/18 02:45:48;;;;;;;;;;;;;;;19.33;34.28;101081.05;105265;1296;75487;-82
2023/02/18 02:48:20;;;;;;;;;;;;;;;19.33;34.29;101079.46;105354;1291;61338;-82
2023/02/18 02:50:53;;;;;;;;;;;;;;;19.34;34.51;101082.11;105358;1291;61215;-82
2023/02/18 02:53:21;;;;;;;;;;;;;;;19.33;34.42;101084.10;105346;1295;71376;-82
2023/02/18 02:55:47;;;;;;;;;;;;;;;19.33;34.36;101082.86;105194;1292;74177;-82
2023/02/18 02:58:16;;;;;;;;;;;;;;;19.33;34.45;101088.23;105351;1290;61475;-82
2023/02/18 03:01:08;;;;;;;;;;;;;;;19.33;34.41;101090.72;105343;1291;61303;-82
2023/02/18 03:03:37;;;;;;;;;;;;;;;19.33;34.33;101092.68;106020;1283;73470;-82
2023/02/18 03:06:20;;;;;;;;;;;;;;;19.33;34.35;101087.67;106266;1283;74439;-82
2023/02/18 03:08:52;;;;;;;;;;;;;;;19.32;34.34;101081.29;106180;1286;61237;-82
2023/02/18 03:11:18;;;;;;;;;;;;;;;19.33;34.38;101079.14;105974;1289;61138;-82
2023/02/18 03:13:46;;;;;;;;;;;;;;;19.33;34.37;101069.67;106279;1282;61285;-82
2023/02/18 03:16:15;;;;;;;;;;;;;;;19.32;34.32;101057.75;106149;1283;73680;-82
2023/02/18 03:19:13;;;;;;;;;;;;;;;19.32;34.41;101049.34;106179;1285;61210;-82
2023/02/18 03:21:45;;;;;;;;;;;;;;;19.32;34.27;101042.77;105492;1289;61431;-82
2023/02/18 03:24:16;;;;;;;;;;;;;;;19.31;34.40;101043.70;105582;1288;73482;-82
2023/02/18 03:26:45;;;;;;;;;;;;;;;19.32;34.34;101030.69;105625;1289;74541;-82
2023/02/18 03:29:10;;;;;;;;;;;;;;;19.31;34.41;101034.60;105604;1294;60077;-82
2023/02/18 03:31:37;;;;;;;;;;;;;;;19.32;34.35;101036.53;105488;1294;61314;-81
2023/02/18 03:34:04;;;;;;;;;;;;;;;19.32;34.29;101029.23;105431;1294;61381;-82
2023/02/18 03:36:30;;;;;;;;;;;;;;;19.32;34.42;101026.02;105480;1293;61335;-82
2023/02/18 03:38:58;;;;;;;;;;;;;;;19.31;34.38;101033.69;105631;1289;61376;-82
2023/02/18 03:41:23;;;;;;;;;;;;;;;19.32;34.39;101024.05;105620;1289;61464;-82
2023/02/18 03:43:50;;;;;;;;;;;;;;;19.31;34.47;101024.96;105612;1289;61287;-82
2023/02/18 03:46:16;;;;;;;;;;;;;;;19.32;34.33;101032.79;105618;1292;61278;-82
2023/02/18 03:48:41;;;;;;;;;;;;;;;19.31;34.31;101033.16;105513;1289;61283;-82
2023/02/18 03:51:07;;;;;;;;;;;;;;;19.31;34.32;101037.10;105430;1291;61394;-82
2023/02/18 03:53:32;;;;;;;;;;;;;;;19.31;34.45;101036.05;105484;1289;61262;-82
2023/02/18 03:55:58;;;;;;;;;;;;;;;19.31;34.37;101034.27;105649;1295;61299;-82
2023/02/18 03:58:23;;;;;;;;;;;;;;;19.31;34.44;101026.77;105987;1288;61260;-82
2023/02/18 04:00:50;;;;;;;;;;;;;;;19.31;34.34;101022.50;106177;1283;61225;-81
2023/02/18 04:03:15;;;;;;;;;;;;;;;19.31;34.53;101019.48;106169;1283;61358;-81
2023/02/18 04:05:41;;;;;;;;;;;;;;;19.30;34.34;101010.38;106138;1281;61236;-81
2023/02/18 04:08:07;;;;;;;;;;;;;;;19.30;34.45;101010.38;106261;1286;61211;-81
2023/02/18 04:10:32;;;;;;;;;;;;;;;19.31;34.32;101015.90;106428;1282;60965;-82
2023/02/18 04:12:58;;;;;;;;;;;;;;;19.31;34.29;101015.36;106238;1283;61209;-82
2023/02/18 04:15:23;;;;;;;;;;;;;;;19.31;34.62;101023.37;106289;1283;61157;-82
2023/02/18 04:17:49;;;;;;;;;;;;;;;19.31;34.59;101013.94;106259;1283;60404;-82
2023/02/18 04:20:15;;;;;;;;;;;;;;;19.31;34.51;101006.42;106350;1285;61024;-82
2023/02/18 04:22:41;;;;;;;;;;;;;;;19.31;34.59;100999.27;106252;1282;61087;-82
2023/02/18 04:25:06;;;;;;;;;;;;;;;19.32;34.44;100998.55;106229;1283;61394;-82
2023/02/18 04:27:32;;;;;;;;;;;;;;;19.31;34.53;100998.20;105996;1282;61362;-82
2023/02/18 04:29:57;;;;;;;;;;;;;;;19.32;34.58;100984.61;106227;1283;61115;-82
2023/02/18 04:32:23;;;;;;;;;;;;;;;19.32;34.48;100984.98;106344;1286;61282;-82
2023/02/18 04:34:48;;;;;;;;;;;;;;;19.32;34.64;100981.41;106328;1283;61294;-81
2023/02/18 04:37:14;;;;;;;;;;;;;;;19.32;34.49;100983.00;106293;1283;61330;-81
2023/02/18 04:39:39;;;;;;;;;;;;;;;19.32;34.45;100974.43;106353;1283;61154;-81
2023/02/18 04:42:07;;;;;;;;;;;;;;;19.32;34.58;100972.09;106172;1288;61406;-81
2023/02/18 04:44:37;;;;;;;;;;;;;;;19.32;34.37;100964.95;106152;1288;74314;-82
2023/02/18 04:47:03;;;;;;;;;;;;;;;19.32;34.56;100964.60;106261;1283;61298;-82
2023/02/18 04:49:28;;;;;;;;;;;;;;;19.32;34.45;100970.85;106296;1282;62145;-82
2023/02/18 04:51:54;;;;;;;;;;;;;;;19.32;34.43;100971.40;106270;1283;61275;-81
2023/02/18 04:54:19;;;;;;;;;;;;;;;19.31;34.56;100971.96;106178;1283;61380;-81
2023/02/18 04:56:45;;;;;;;;;;;;;;;19.31;34.52;100969.28;106208;1281;60236;-81
2023/02/18 04:59:10;;;;;;;;;;;;;;;19.31;34.37;100972.69;106203;1283;61412;-81
2023/02/18 05:01:36;;;;;;;;;;;;;;;19.31;34.45;100972.70;106176;1288;61350;-81
2023/02/18 05:04:01;;;;;;;;;;;;;;;19.30;34.53;100973.08;106286;1285;61236;-82
2023/02/18 05:06:27;;;;;;;;;;;;;;;19.30;34.46;100969.00;106280;1282;61297;-81
2023/02/18 05:08:53;;;;;;;;;;;;;;;19.30;34.59;100968.30;106217;1283;61297;-81
2023/02/18 05:11:19;;;;;;;;;;;;;;;19.29;34.56;100974.40;106319;1285;61233;-81
2023/02/18 05:13:44;;;;;;;;;;;;;;;19.29;34.38;100981.19;105958;1282;60414;-81
2023/02/18 05:16:10;;;;;;;;;;;;;;;19.29;34.48;100986.90;106259;1282;61391;-81
2023/02/18 05:18:38;;;;;;;;;;;;;;;19.29;34.57;100988.50;106165;1287;75230;-81
2023/02/18 05:21:04;;;;;;;;;;;;;;;19.29;34.52;100986.04;106028;1283;61301;-81
2023/02/18 05:23:29;;;;;;;;;;;;;;;19.28;34.52;100988.22;106145;1282;61426;-81
2023/02/18 05:25:55;;;;;;;;;;;;;;;19.28;34.59;100989.46;106261;1283;61343;-81
2023/02/18 05:28:21;;;;;;;;;;;;;;;19.28;34.60;100990.17;106183;1283;61281;-81
2023/02/18 05:30:47;;;;;;;;;;;;;;;19.28;34.63;100988.42;106250;1283;61275;-81
2023/02/18 05:33:12;;;;;;;;;;;;;;;19.28;34.47;100988.98;106182;1282;61525;-81
2023/02/18 05:35:38;;;;;;;;;;;;;;;19.28;34.58;100989.48;106184;1283;61465;-81
2023/02/18 05:38:04;;;;;;;;;;;;;;;19.27;34.57;100984.34;106180;1288;61351;-81
2023/02/18 05:40:29;;;;;;;;;;;;;;;19.26;34.54;100984.91;106197;1282;61521;-81
2023/02/18 05:42:54;;;;;;;;;;;;;;;19.27;34.45;100994.20;106235;1282;61221;-81
2023/02/18 05:45:20;;;;;;;;;;;;;;;19.26;34.59;100999.38;106263;1283;61381;-81
2023/02/18 05:47:45;;;;;;;;;;;;;;;19.26;34.60;100990.30;106264;1283;61243;-81
2023/02/18 05:50:11;;;;;;;;;;;;;;;19.26;34.47;100986.73;106179;1283;61265;-81
2023/02/18 05:52:37;;;;;;;;;;;;;;;19.26;34.59;100984.39;106146;1282;61721;-81
2023/02/18 05:55:02;;;;;;;;;;;;;;;19.25;34.60;100982.46;106211;1283;61323;-81
2023/02/18 05:57:28;;;;;;;;;;;;;;;19.26;34.51;100977.81;106154;1283;61289;-81
2023/02/18 05:59:54;;;;;;;;;;;;;;;19.26;34.54;100982.27;106202;1283;61411;-81
2023/02/18 06:02:19;;;;;;;;;;;;;;;19.26;34.45;100987.27;106188;1283;61363;-81
2023/02/18 06:04:45;;;;;;;;;;;;;;;19.26;34.66;100980.86;106202;1286;61310;-81
2023/02/18 06:07:11;;;;;;;;;;;;;;;19.25;34.43;100982.30;106200;1282;61263;-81
2023/02/18 06:09:36;;;;;;;;;;;;;;;19.26;34.54;100981.20;106249;1283;61230;-81
2023/02/18 06:12:02;;;;;;;;;;;;;;;19.25;34.50;100985.88;106028;1281;61345;-81
2023/02/18 06:14:27;;;;;;;;;;;;;;;19.26;34.45;100992.64;106007;1283;61342;-81
2023/02/18 06:16:53;;;;;;;;;;;;;;;19.26;34.60;100994.23;106135;1283;61325;-81
2023/02/18 06:19:18;;;;;;;;;;;;;;;19.26;34.71;101003.15;106201;1283;61254;-81
2023/02/18 06:21:44;;;;;;;;;;;;;;;19.26;34.58;101012.40;106203;1282;61138;-81
2023/02/18 06:24:09;;;;;;;;;;;;;;;19.26;34.43;101005.09;106200;1283;61371;-81
2023/02/18 06:26:35;;;;;;;;;;;;;;;19.26;34.62;101007.58;106185;1283;61294;-81
2023/02/18 06:29:00;;;;;;;;;;;;;;;19.26;34.71;101013.13;106135;1283;61237;-81
2023/02/18 06:31:27;;;;;;;;;;;;;;;19.27;34.63;101023.80;106226;1283;61395;-81
2023/02/18 06:33:52;;;;;;;;;;;;;;;19.26;34.59;101025.79;106204;1282;61301;-81
2023/02/18 06:36:18;;;;;;;;;;;;;;;19.27;34.60;101025.41;106294;1282;61783;-81
2023/02/18 06:38:44;;;;;;;;;;;;;;;19.26;34.63;101018.14;106212;1283;61258;-81
2023/02/18 06:41:10;;;;;;;;;;;;;;;19.26;34.64;101013.48;106173;1283;61259;-81
2023/02/18 06:43:36;;;;;;;;;;;;;;;19.26;34.63;101016.17;106191;1282;61324;-81
2023/02/18 06:46:01;;;;;;;;;;;;;;;19.26;34.60;101012.40;106162;1288;61123;-81
2023/02/18 06:48:27;;;;;;;;;;;;;;;19.26;34.57;101004.39;106047;1282;61237;-81
2023/02/18 06:50:52;;;;;;;;;;;;;;;19.26;34.58;100997.23;106186;1282;61266;-81
2023/02/18 06:53:18;;;;;;;;;;;;;;;19.26;34.63;100995.45;105971;1283;61404;-81
2023/02/18 06:55:44;;;;;;;;;;;;;;;19.26;34.68;100996.36;106148;1282;61265;-81
2023/02/18 06:58:10;;;;;;;;;;;;;;;19.26;34.62;100996.87;106177;1283;61374;-81
2023/02/18 07:00:35;;;;;;;;;;;;;;;19.26;34.63;100995.98;106182;1283;61176;-81
2023/02/18 07:03:01;;;;;;;;;;;;;;;19.26;34.72;100992.41;105415;1283;873874;-81
2023/02/18 07:05:26;;;;;;;;;;;;;;;19.26;34.61;100992.60;106035;1282;61404;-81
2023/02/18 07:07:52;;;;;;;;;;;;;;;19.27;34.59;100997.39;106055;1282;61337;-81
2023/02/18 07:10:18;;;;;;;;;;;;;;;19.27;34.68;100997.23;106043;1283;61415;-81
2023/02/18 07:12:43;;;;;;;;;;;;;;;19.26;34.73;100998.48;106291;1282;61243;-81
2023/02/18 07:15:09;;;;;;;;;;;;;;;19.26;34.58;100992.80;106188;1282;71852;-81
2023/02/18 07:17:35;;;;;;;;;;;;;;;19.27;34.61;100996.15;106175;1286;61351;-81
2023/02/18 07:20:00;;;;;;;;;;;;;;;19.26;34.54;100998.48;106153;1283;61284;-81
2023/02/18 07:22:26;;;;;;;;;;;;;;;19.26;34.56;100998.48;106178;1282;61965;-81
2023/02/18 07:24:52;;;;;;;;;;;;;;;19.26;34.65;100984.20;106222;1283;61438;-81
2023/02/18 07:27:18;;;;;;;;;;;;;;;19.26;34.63;100982.23;106184;1282;74121;-81
2023/02/18 07:29:49;;;;;;;;;;;;;;;19.26;34.70;100983.69;106182;1288;61279;-81
2023/02/18 07:32:15;;;;;;;;;;;;;;;19.26;34.67;100986.17;106278;1282;61179;-81
2023/02/18 07:34:41;;;;;;;;;;;;;;;19.26;34.65;100986.02;106170;1282;61109;-81
2023/02/18 07:37:08;;;;;;;;;;;;;;;19.26;34.66;100987.80;106244;1283;61366;-81
2023/02/18 07:39:40;;;;;;;;;;;;;;;19.26;34.76;100990.48;106261;1282;60043;-81
2023/02/18 07:42:06;;;;;;;;;;;;;;;19.26;34.69;100987.45;106180;1282;61218;-81
2023/02/18 07:44:31;;;;;;;;;;;;;;;19.26;34.66;100985.66;106199;1283;61272;-81
2023/02/18 07:46:57;;;;;;;;;;;;;;;19.25;34.61;100980.52;106263;1283;61287;-81
2023/02/18 07:49:22;;;;;;;;;;;;;;;19.25;34.61;100979.61;106268;1283;61215;-81
2023/02/18 07:51:48;;;;;;;;;;;;;;;19.25;34.67;100977.30;106312;1282;61279;-81
2023/02/18 07:54:14;;;;;;;;;;;;;;;19.25;34.77;100972.31;106166;1283;61253;-81
2023/02/18 07:56:39;;;;;;;;;;;;;;;19.25;34.69;100971.65;106174;1282;61447;-81
2023/02/18 07:59:05;;;;;;;;;;;;;;;19.24;34.69;100972.37;106147;1285;61265;-81
2023/02/18 08:01:30;;;;;;;;;;;;;;;19.24;34.62;100970.59;106280;1282;61340;-81
2023/02/18 08:03:56;;;;;;;;;;;;;;;19.24;34.65;100965.78;106226;1287;61269;-81
2023/02/18 08:06:24;;;;;;;;;;;;;;;19.24;34.68;100965.61;106267;1282;61094;-81
2023/02/18 08:08:50;;;;;;;;;;;;;;;19.23;34.80;100966.91;106215;1282;62190;-81
2023/02/18 08:11:15;;;;;;;;;;;;;;;19.24;34.75;100962.77;106256;1282;60105;-81
2023/02/18 08:13:40;;;;;;;;;;;;;;;19.24;34.65;100965.09;106241;1283;61311;-81
2023/02/18 08:16:06;;;;;;;;;;;;;;;19.23;34.81;100965.16;106188;1283;61339;-81
2023/02/18 08:18:32;;;;;;;;;;;;;;;19.23;34.79;100965.14;106205;1282;61349;-81
2023/02/18 08:20:57;;;;;;;;;;;;;;;19.23;34.75;100964.05;106267;1283;61189;-81
2023/02/18 08:23:25;;;;;;;;;;;;;;;19.23;34.75;100960.15;106254;1282;61272;-81
2023/02/18 08:25:52;;;;;;;;;;;;;;;19.23;34.72;100951.23;106173;1281;74461;-81
2023/02/18 08:28:18;;;;;;;;;;;;;;;19.23;34.60;100946.79;106254;1282;61088;-81
2023/02/18 08:30:46;;;;;;;;;;;;;;;19.23;34.71;100940.37;106258;1283;61265;-81
2023/02/18 08:33:12;;;;;;;;;;;;;;;19.23;34.68;100940.90;106154;1283;72483;-81
2023/02/18 08:35:37;;;;;;;;;;;;;;;19.22;34.70;100945.91;106184;1282;61346;-81
2023/02/18 08:38:03;;;;;;;;;;;;;;;19.22;34.69;100942.36;106194;1283;59862;-81
2023/02/18 08:40:28;;;;;;;;;;;;;;;19.23;34.75;100940.36;106185;1282;60685;-81
2023/02/18 08:42:54;;;;;;;;;;;;;;;19.22;34.75;100935.04;106224;1283;61185;-81
2023/02/18 08:45:19;;;;;;;;;;;;;;;19.22;34.75;100930.77;106159;1282;73534;-81
2023/02/18 08:47:45;;;;;;;;;;;;;;;19.22;34.63;100932.55;106178;1282;61203;-81
2023/02/18 08:50:11;;;;;;;;;;;;;;;19.22;34.63;100927.38;106195;1282;61323;-81
2023/02/18 08:52:36;;;;;;;;;;;;;;;19.21;34.81;100917.95;106187;1282;61887;-81
2023/02/18 08:55:03;;;;;;;;;;;;;;;19.22;34.78;100925.22;106288;1283;61262;-81
2023/02/18 08:57:29;;;;;;;;;;;;;;;19.22;34.95;100931.33;106143;1282;73289;-81
2023/02/18 08:59:54;;;;;;;;;;;;;;;19.22;34.78;100922.05;106225;1283;61406;-81
2023/02/18 09:02:20;;;;;;;;;;;;;;;19.21;34.80;100927.95;106256;1282;61326;-81
2023/02/18 09:04:45;;;;;;;;;;;;;;;19.21;34.84;100932.77;106129;1282;61400;-81
2023/02/18 09:07:11;;;;;;;;;;;;;;;19.22;34.77;100936.48;106195;1281;61342;-81
2023/02/18 09:09:36;;;;;;;;;;;;;;;19.21;34.74;100936.69;106226;1285;72482;-81
2023/02/18 09:12:02;;;;;;;;;;;;;;;19.21;34.76;100932.96;106241;1283;61311;-81
2023/02/18 09:14:27;;;;;;;;;;;;;;;19.21;34.89;100929.75;106220;1282;61262;-81
2023/02/18 09:16:53;;;;;;;;;;;;;;;19.21;34.85;100932.96;106215;1283;61300;-81
2023/02/18 09:19:18;;;;;;;;;;;;;;;19.21;34.95;100936.55;106213;1281;61397;-81
2023/02/18 09:21:44;;;;;;;;;;;;;;;19.21;34.72;100934.55;106183;1283;72496;-81
2023/02/18 09:24:09;;;;;;;;;;;;;;;19.21;34.77;100931.55;106249;1282;61281;-81
2023/02/18 09:26:35;;;;;;;;;;;;;;;19.21;34.89;100931.56;106190;1282;61285;-81
2023/02/18 09:29:01;;;;;;;;;;;;;;;19.21;34.83;100926.20;106174;1283;61861;-81
2023/02/18 09:31:27;;;;;;;;;;;;;;;19.21;34.80;100921.02;106237;1282;61250;-81
2023/02/18 09:33:54;;;;;;;;;;;;;;;19.21;34.93;100921.02;106253;1282;61372;-81
2023/02/18 09:36:20;;;;;;;;;;;;;;;19.21;34.81;100920.33;106258;1282;74152;-81
2023/02/18 09:38:45;;;;;;;;;;;;;;;19.21;34.73;100919.46;106190;1283;61285;-81
2023/02/18 09:41:16;;;;;;;;;;;;;;;19.20;34.92;100922.64;106251;1282;61282;-81
2023/02/18 09:43:43;;;;;;;;;;;;;;;19.21;34.89;100924.79;106200;1283;73615;-81
2023/02/18 09:46:16;;;;;;;;;;;;;;;19.20;34.80;100927.29;106189;1283;74934;-81
2023/02/18 09:48:41;;;;;;;;;;;;;;;19.20;34.78;100922.30;106061;1282;61317;-81
2023/02/18 09:51:09;;;;;;;;;;;;;;;19.21;34.83;100920.67;106182;1282;61268;-81
2023/02/18 09:53:34;;;;;;;;;;;;;;;19.21;34.94;100919.95;106045;1283;74248;-81
2023/02/18 09:56:00;;;;;;;;;;;;;;;19.20;34.82;100914.80;106256;1282;61357;-81
2023/02/18 09:58:26;;;;;;;;;;;;;;;19.21;35.05;100918.20;106141;1282;61989;-81
2023/02/18 10:00:54;;;;;;;;;;;;;;;19.21;34.98;100923.55;106119;1282;61209;-81
2023/02/18 10:03:21;;;;;;;;;;;;;;;19.21;34.88;100922.65;106206;1282;61265;-81
2023/02/18 10:06:03;;;;;;;;;;;;;;;19.21;34.97;100914.06;106065;1282;61346;-81
2023/02/18 10:08:31;;;;;;;;;;;;;;;19.20;35.04;100915.88;106028;1282;61177;-81
2023/02/18 10:10:56;;;;;;;;;;;;;;;19.21;34.93;100914.59;106147;1282;61231;-81
2023/02/18 10:13:23;;;;;;;;;;;;;;;19.21;34.87;100905.33;106157;1282;60092;-81
2023/02/18 10:15:49;;;;;;;;;;;;;;;19.21;35.09;100907.81;106021;1282;61262;-81
2023/02/18 10:18:22;;;;;;;;;;;;;;;19.20;35.06;100904.44;106151;1282;59637;-81
2023/02/18 10:20:48;;;;;;;;;;;;;;;19.21;35.01;100895.52;106185;1283;61375;-81
2023/02/18 10:23:13;;;;;;;;;;;;;;;19.21;35.00;100894.61;106081;1282;60169;-81
2023/02/18 10:25:42;;;;;;;;;;;;;;;19.21;34.97;100894.98;106026;1282;61477;-81
2023/02/18 10:28:08;;;;;;;;;;;;;;;19.21;35.02;100897.11;106093;1282;61696;-81
2023/02/18 10:30:35;;;;;;;;;;;;;;;19.21;34.97;100894.60;106119;1282;61243;-81
2023/02/18 10:33:09;;;;;;;;;;;;;;;19.21;35.02;100887.27;106039;1282;61275;-81
2023/02/18 10:35:56;;;;;;;;;;;;;;;19.21;34.89;100883.52;105855;1284;74543;-81
2023/02/18 10:38:31;;;;;;;;;;;;;;;19.21;35.01;100879.61;105794;1286;61465;-81
2023/02/18 10:40:59;;;;;;;;;;;;;;;19.21;35.04;100882.29;105974;1285;61290;-81
2023/02/18 10:43:29;;;;;;;;;;;;;;;19.21;35.00;100876.40;105906;1285;71578;-81
2023/02/18 10:46:16;;;;;;;;;;;;;;;19.21;34.98;100877.13;105949;1285;75973;-81
2023/02/18 10:49:00;;;;;;;;;;;;;;;19.21;35.08;100876.77;105815;1285;61263;-81
2023/02/18 10:51:28;;;;;;;;;;;;;;;19.21;35.09;100879.83;105806;1285;62835;-81
2023/02/18 10:53:54;;;;;;;;;;;;;;;19.21;35.07;100873.23;105923;1285;73621;-81
2023/02/18 10:56:28;;;;;;;;;;;;;;;19.20;34.88;100872.17;105776;1285;61333;-80
2023/02/18 10:58:57;;;;;;;;;;;;;;;19.20;34.99;100869.66;105941;1286;61279;-80
2023/02/18 11:01:23;;;;;;;;;;;;;;;19.20;35.08;100861.45;105830;1285;61178;-80
2023/02/18 11:03:49;;;;;;;;;;;;;;;19.20;35.00;100860.41;105765;1285;61435;-81
2023/02/18 11:06:24;;;;;;;;;;;;;;;19.21;34.99;100859.85;105848;1282;61238;-81
2023/02/18 11:08:50;;;;;;;;;;;;;;;19.20;34.92;100853.27;106086;1283;61278;-81
2023/02/18 11:11:21;;;;;;;;;;;;;;;19.20;35.05;100854.16;106086;1284;61226;-81
2023/02/18 11:13:51;;;;;;;;;;;;;;;19.20;35.08;100850.61;106092;1282;73751;-81
2023/02/18 11:16:16;;;;;;;;;;;;;;;19.20;35.00;100849.16;106137;1282;75350;-81
2023/02/18 11:18:44;;;;;;;;;;;;;;;19.20;35.11;100851.32;106094;1282;61284;-81
2023/02/18 11:21:20;;;;;;;;;;;;;;;19.20;35.09;100851.49;106078;1282;61305;-81
2023/02/18 11:23:47;;;;;;;;;;;;;;;19.20;35.07;100846.67;106177;1282;73329;-80
2023/02/18 11:26:13;;;;;;;;;;;;;;;19.20;35.03;100840.23;106190;1285;75360;-80
2023/02/18 11:28:43;;;;;;;;;;;;;;;19.20;35.00;100839.02;106161;1282;61295;-81
2023/02/18 11:31:10;;;;;;;;;;;;;;;19.20;35.12;100840.25;106162;1282;61763;-81
2023/02/18 11:33:41;;;;;;;;;;;;;;;19.20;35.05;100830.09;106019;1282;61435;-81
2023/02/18 11:36:16;;;;;;;;;;;;;;;19.20;35.00;100824.91;106128;1282;75508;-81
2023/02/18 11:38:46;;;;;;;;;;;;;;;19.20;35.04;100823.14;106088;1282;61392;-81
2023/02/18 11:41:13;;;;;;;;;;;;;;;19.19;35.04;100821.38;106092;1282;61166;-81
2023/02/18 11:43:42;;;;;;;;;;;;;;;19.20;35.10;100819.74;106162;1282;61749;-81
2023/02/18 11:46:15;;;;;;;;;;;;;;;19.20;35.01;100812.27;106073;1282;75395;-81
2023/02/18 11:48:41;;;;;;;;;;;;;;;19.19;35.16;100802.49;106108;1282;61164;-81
2023/02/18 11:51:36;;;;;;;;;;;;;;;19.19;35.02;100791.58;106139;1282;62062;-81
2023/02/18 11:54:02;;;;;;;;;;;;;;;19.19;35.20;100788.39;105538;1288;73584;-81
2023/02/18 11:56:29;;;;;;;;;;;;;;;19.19;35.08;100801.40;105558;1289;75309;-81
2023/02/18 11:58:55;;;;;;;;;;;;;;;19.19;35.22;100793.17;105601;1288;61971;-81
2023/02/18 12:01:35;;;;;;;;;;;;;;;19.19;35.08;100788.53;105508;1288;62137;-81
2023/02/18 12:04:10;;;;;;;;;;;;;;;19.19;35.12;100784.63;105610;1288;72786;-81
2023/02/18 12:06:55;;;;;;;;;;;;;;;19.20;35.10;100781.05;105510;1288;75361;-81
2023/02/18 12:09:24;;;;;;;;;;;;;;;19.19;35.22;100780.67;104974;1294;61847;-81
2023/02/18 12:11:53;;;;;;;;;;;;;;;19.20;35.11;100778.16;105088;1294;60901;-81
2023/02/18 12:14:20;;;;;;;;;;;;;;;19.20;35.05;100777.11;105031;1294;72504;-81
2023/02/18 12:16:47;;;;;;;;;;;;;;;19.20;35.01;100776.05;105008;1294;62218;-81
2023/02/18 12:19:13;;;;;;;;;;;;;;;19.20;35.16;100778.34;105045;1294;62061;-82
2023/02/18 12:21:39;;;;;;;;;;;;;;;19.20;35.09;100773.35;105047;1294;62155;-81
2023/02/18 12:24:10;;;;;;;;;;;;;;;19.20;35.15;100775.13;105011;1294;60889;-81
2023/02/18 12:26:48;;;;;;;;;;;;;;;19.20;35.24;100775.48;105011;1294;76215;-81
2023/02/18 12:29:13;;;;;;;;;;;;;;;19.20;35.17;100760.84;104976;1294;62160;-81